Flight Track Log - Related Links

Times and Time Zones

All times are in EDT time to prevent confusion due to time zone crossing. See the PWA138 flight status page for this flight to view local times or setup timezone preferences in your user account.

Time Position Orientation Groundspeed Altitude Reporting Facility
EDT Latitude Longitude Course Direction KTS MPH feet Rate Location/Type
Tue 05:44:10 PM 33.6167 -111.9167 296° West 160 184 2,800  Level Phoenix TRACON
Tue 05:45:50 PM 33.6556 -112.0133 296° West 267 307 6,400 3,074 Climbing Albuquerque Center
Tue 05:46:52 PM 33.7353 -111.9642 27° Northeast 283 326 11,100 3,659 Climbing Albuquerque Center
Tue 05:47:53 PM 33.8017 -111.8978 40° Northeast 309 356 13,900 2,613 Climbing Albuquerque Center
Tue 05:48:56 PM 33.8847 -111.8425 29° Northeast 340 391 16,500 2,855 Climbing Albuquerque Center
Tue 05:49:57 PM 33.9792 -111.7778 30° Northeast 350 403 19,800 2,803 Climbing Albuquerque Center
Tue 05:50:58 PM 34.0711 -111.7086 32° Northeast 360 414 22,200 2,016 Climbing Albuquerque Center
Tue 05:52:02 PM 34.1433 -111.6250 44° Northeast 383 441 24,000 1,824 Climbing Albuquerque Center
Tue 05:53:03 PM 34.2261 -111.5308 43° Northeast 404 465 26,000 1,967 Climbing Albuquerque Center
Tue 05:54:04 PM 34.3117 -111.4339 43° Northeast 417 480 28,000 1,500 Climbing Albuquerque Center
Tue 05:55:07 PM 34.3989 -111.3336 43° Northeast 427 491 29,100 1,258 Climbing Albuquerque Center
Tue 05:56:08 PM 34.4936 -111.2258 43° Northeast 458 527 30,600 1,694 Climbing Albuquerque Center
Tue 05:57:11 PM 34.6042 -111.0975 44° Northeast 462 532 32,600 1,645 Climbing Albuquerque Center
Tue 05:58:12 PM 34.6964 -110.9914 43° Northeast 460 529 34,000 1,240 Climbing Albuquerque Center
Tue 05:59:12 PM 34.7900 -110.8833 43° Northeast 461 531 35,100 1,113 Climbing Albuquerque Center
Tue 06:00:16 PM 34.8836 -110.7722 44° Northeast 468 539 36,300 912 Climbing Albuquerque Center
Tue 06:01:17 PM 34.9803 -110.6558 45° Northeast 467 537 37,000 339 Climbing Albuquerque Center
Tue 06:02:20 PM 35.0900 -110.5283 44° Northeast 481 554 37,000  Level Albuquerque Center
Tue 06:03:21 PM 35.1856 -110.4144 44° Northeast 496 571 37,000  Level Albuquerque Center
Tue 06:04:21 PM 35.2983 -110.2836 43° Northeast 499 574 37,000  Level Albuquerque Center
Tue 06:05:25 PM 35.3939 -110.1697 44° Northeast 500 575 37,000  Level Albuquerque Center
Tue 06:06:25 PM 35.4900 -110.0553 44° Northeast 501 577 37,000  Level Albuquerque Center
Tue 06:07:27 PM 35.6028 -109.9219 44° Northeast 503 579 37,000  Level Albuquerque Center
Tue 06:08:29 PM 35.6956 -109.8047 46° Northeast 501 577 37,000  Level Albuquerque Center
Tue 06:09:32 PM 35.7919 -109.6517 52° Northeast 504 580 37,000 48 Level Albuquerque Center
Tue 06:10:33 PM 35.8747 -109.5197 52° Northeast 507 583 37,100 576 Climbing Albuquerque Center
Tue 06:11:37 PM 35.9692 -109.3689 52° Northeast 499 574 38,200 871 Climbing Albuquerque Center
Tue 06:12:37 PM 36.0497 -109.2403 52° Northeast 494 568 38,900 397 Climbing Albuquerque Center
Tue 06:13:38 PM 36.1292 -109.1106 53° Northeast 493 567 39,000 48 Climbing Albuquerque Center
Tue 06:14:43 PM 36.2294 -108.9542 51° Northeast 500 575 39,000  Level Albuquerque Center
Tue 06:15:44 PM 36.3122 -108.8197 53° Northeast 504 580 39,000  Level Albuquerque Center
Tue 06:16:45 PM 36.4067 -108.6639 53° Northeast 502 578 39,000  Level Albuquerque Center
Tue 06:17:48 PM 36.4869 -108.5311 53° Northeast 501 577 39,000  Level Albuquerque Center
Tue 06:19:11 PM 36.6078 -108.3322 53° Northeast 498 573 39,000  Level Denver Center
Tue 06:20:13 PM 36.6872 -108.1983 53° Northeast 500 575 39,000  Level Denver Center
Tue 06:21:15 PM 36.7725 -108.0372 57° Northeast 497 572 39,000  Level Denver Center
Tue 06:22:18 PM 36.8319 -107.8858 64° Northeast 505 581 39,000  Level Denver Center
Tue 06:23:20 PM 36.9011 -107.7108 64° Northeast 504 580 39,000  Level Denver Center
Tue 06:24:22 PM 36.9614 -107.5603 63° Northeast 505 581 39,000  Level Denver Center
Tue 06:25:24 PM 37.0294 -107.3847 64° Northeast 503 579 39,000  Level Denver Center
Tue 06:26:26 PM 37.0878 -107.2353 64° Northeast 500 575 39,000  Level Denver Center
Tue 06:27:28 PM 37.1553 -107.0611 64° Northeast 498 573 39,000  Level Denver Center
Tue 06:28:30 PM 37.2133 -106.9111 64° Northeast 499 574 39,000  Level Denver Center
Tue 06:29:32 PM 37.2803 -106.7369 64° Northeast 498 573 39,000  Level Denver Center
Tue 06:30:34 PM 37.3383 -106.5878 64° Northeast 496 571 39,000  Level Denver Center
Tue 06:31:36 PM 37.4044 -106.4122 65° Northeast 497 572 39,000  Level Denver Center
Tue 06:32:38 PM 37.4606 -106.2608 65° Northeast 499 574 39,000  Level Denver Center
Tue 06:33:40 PM 37.5167 -106.1108 65° Northeast 495 570 39,000  Level Denver Center
Tue 06:34:42 PM 37.5775 -105.9458 65° Northeast 496 571 39,000  Level Denver Center
Tue 06:35:44 PM 37.6428 -105.7703 65° Northeast 496 571 39,000  Level Denver Center
Tue 06:36:46 PM 37.6978 -105.6186 65° Northeast 497 572 39,000  Level Denver Center
Tue 06:37:49 PM 37.7622 -105.4442 65° Northeast 491 565 39,000  Level Denver Center
Tue 06:38:51 PM 37.8172 -105.2933 65° Northeast 492 566 39,000  Level Denver Center
Tue 06:39:53 PM 37.8828 -105.1158 65° Northeast 496 571 39,000  Level Denver Center
Tue 06:40:55 PM 37.9372 -104.9642 65° Northeast 494 568 39,000  Level Denver Center
Tue 06:41:57 PM 38.0014 -104.7856 65° Northeast 495 570 39,000  Level Denver Center
Tue 06:42:59 PM 38.0561 -104.6333 65° Northeast 495 570 39,000  Level Denver Center
Tue 06:44:01 PM 38.1103 -104.4800 66° East 496 571 39,000  Level Denver Center
Tue 06:45:03 PM 38.1731 -104.3036 66° East 489 563 39,000  Level Denver Center
Tue 06:46:05 PM 38.2272 -104.1494 66° East 493 567 39,000  Level Denver Center
Tue 06:47:07 PM 38.2908 -103.9694 66° East 497 572 39,000  Level Denver Center
Tue 06:48:09 PM 38.3436 -103.8147 66° East 496 571 39,000  Level Denver Center
Tue 06:49:11 PM 38.4050 -103.6356 66° East 494 568 39,000  Level Denver Center
Tue 06:50:13 PM 38.4583 -103.4819 66° East 495 570 39,000  Level Denver Center
Tue 06:51:14 PM 38.5192 -103.3050 66° East 493 567 39,000  Level Denver Center
Tue 06:52:16 PM 38.5700 -103.1550 67° East 489 563 39,000  Level Denver Center
Tue 06:53:18 PM 38.6239 -102.9944 67° East 493 567 39,000  Level Denver Center
Tue 06:54:20 PM 38.6775 -102.8350 67° East 491 565 39,000  Level Denver Center
Tue 06:55:22 PM 38.7250 -102.6911 67° East 490 564 39,000  Level Denver Center
Tue 06:56:24 PM 38.7936 -102.4858 67° East 489 563 39,000  Level Denver Center
Tue 06:57:26 PM 38.8447 -102.3322 67° East 490 564 39,000  Level Denver Center
Tue 06:58:28 PM 38.9028 -102.1511 68° East 491 565 39,000  Level Denver Center
Tue 06:59:30 PM 38.9544 -101.9967 67° East 492 566 39,000  Level Denver Center
Tue 07:00:31 PM 39.0131 -101.8156 67° East 492 566 39,000  Level Denver Center
Tue 07:01:33 PM 39.0664 -101.6478 68° East 491 565 39,000  Level Denver Center
Tue 07:02:35 PM 39.1164 -101.4947 67° East 487 560 39,000  Level Denver Center
Tue 07:03:37 PM 39.1658 -101.3389 68° East 491 565 39,000  Level Denver Center
Tue 07:04:39 PM 39.2222 -101.1594 68° East 485 558 39,000  Level Denver Center
Tue 07:05:41 PM 39.2711 -101.0067 68° East 483 556 39,000  Level Denver Center
Tue 07:06:43 PM 39.3278 -100.8244 68° East 490 564 39,000  Level Denver Center
Tue 07:07:44 PM 39.3756 -100.6717 68° East 484 557 39,000  Level Denver Center
Tue 07:08:46 PM 39.4314 -100.4908 68° East 485 558 39,000  Level Denver Center
Tue 07:09:48 PM 39.4789 -100.3353 68° East 487 560 39,000  Level Denver Center
Tue 07:10:50 PM 39.5342 -100.1550 68° East 485 558 39,000  Level Denver Center
Tue 07:11:52 PM 39.5806 -100.0008 69° East 482 555 39,000  Level Denver Center
Tue 07:12:53 PM 39.6361 -99.8181 68° East 482 555 39,000  Level Denver Center
Tue 07:13:55 PM 39.6844 -99.6558 69° East 482 555 39,000  Level Denver Center
Tue 07:14:57 PM 39.7328 -99.4928 69° East 484 557 39,000  Level Denver Center
Tue 07:15:59 PM 39.7817 -99.3308 69° East 482 555 39,000  Level Denver Center
Tue 07:17:01 PM 39.8300 -99.1667 69° East 486 559 39,000  Level Denver Center
Tue 07:18:15 PM 39.8772 -99.0039 69° East 484 557 39,000  Level Denver Center
Tue 07:19:19 PM 39.9431 -98.7769 69° East 483 556 39,000  Level Minneapolis Center
Tue 07:20:22 PM 39.9900 -98.6153 69° East 481 554 39,000  Level Minneapolis Center
Tue 07:21:24 PM 40.0358 -98.4522 70° East 480 552 39,000  Level Minneapolis Center
Tue 07:22:26 PM 40.0828 -98.2906 69° East 480 552 39,000  Level Minneapolis Center
Tue 07:23:28 PM 40.1278 -98.1264 70° East 481 554 39,000  Level Minneapolis Center
Tue 07:24:30 PM 40.1833 -97.9308 70° East 481 554 39,000  Level Minneapolis Center
Tue 07:25:32 PM 40.2289 -97.7678 70° East 480 552 39,000  Level Minneapolis Center
Tue 07:26:34 PM 40.2733 -97.6044 70° East 478 550 39,000  Level Minneapolis Center
Tue 07:27:36 PM 40.3189 -97.4419 70° East 478 550 39,000  Level Minneapolis Center
Tue 07:28:38 PM 40.3619 -97.2861 70° East 479 551 39,000  Level Minneapolis Center
Tue 07:29:40 PM 40.4150 -97.0892 70° East 479 551 39,000  Level Minneapolis Center
Tue 07:30:42 PM 40.4578 -96.9258 71° East 476 548 39,000  Level Minneapolis Center
Tue 07:31:44 PM 40.5028 -96.7622 70° East 477 549 39,000  Level Minneapolis Center
Tue 07:32:46 PM 40.5464 -96.5986 71° East 477 549 39,000  Level Minneapolis Center
Tue 07:34:00 PM 40.5972 -96.4057 71° East  Level FlightAware Approximate
Tue 07:34:50 PM 40.6408 -96.2392 71° East 474 545 39,000  Level Minneapolis Center
Tue 07:35:52 PM 40.6836 -96.0758 71° East 474 545 39,000  Level Minneapolis Center
Tue 07:36:54 PM 40.7253 -95.9128 71° East 474 545 39,000  Level Minneapolis Center
Tue 07:37:56 PM 40.7672 -95.7489 71° East 474 545 39,000  Level Minneapolis Center
Tue 07:38:58 PM 40.8097 -95.5861 71° East 474 545 39,000  Level Minneapolis Center
Tue 07:40:00 PM 40.8519 -95.4206 71° East 477 549 39,000  Level Minneapolis Center
Tue 07:41:02 PM 40.9008 -95.2244 72° East 474 545 39,000  Level Minneapolis Center
Tue 07:42:04 PM 40.9428 -95.0603 71° East 473 544 39,000  Level Minneapolis Center
Tue 07:43:06 PM 40.9833 -94.8961 72° East 472 543 39,000  Level Minneapolis Center
Tue 07:44:08 PM 41.0225 -94.7317 72° East 471 542 39,000  Level Minneapolis Center
Tue 07:45:10 PM 41.0669 -94.5514 72° East 472 543 39,000  Level Minneapolis Center
Tue 07:46:12 PM 41.1067 -94.3853 72° East 474 545 39,000  Level Minneapolis Center
Tue 07:47:14 PM 41.1531 -94.1997 72° East 477 549 39,000  Level Minneapolis Center
Tue 07:48:16 PM 41.1872 -94.0511 73° East 478 550 39,000  Level Minneapolis Center
Tue 07:49:18 PM 41.2267 -93.8867 72° East 474 545 39,000  Level Minneapolis Center
Tue 07:50:20 PM 41.2683 -93.6892 74° East 468 539 39,000  Level Minneapolis Center
Tue 07:51:22 PM 41.2933 -93.5222 79° East 463 533 39,000 -194 Level Minneapolis Center
Tue 07:52:24 PM 41.3333 -93.3572 72° East 468 539 38,600 -677 Descending Minneapolis Center
Tue 07:53:26 PM 41.3700 -93.1967 73° East 460 529 37,600 -774 Descending Minneapolis Center
Tue 07:54:28 PM 41.4069 -93.0333 73° East 462 532 37,000 -823 Descending Minneapolis Center
Tue 07:55:30 PM 41.4503 -92.8386 73° East 460 529 35,900 -1,113 Descending Minneapolis Center
Tue 07:56:32 PM 41.4847 -92.6814 74° East 452 520 34,700 -1,113 Descending Minneapolis Center
Tue 07:57:34 PM 41.5197 -92.5275 73° East 442 509 33,600 -726 Descending Minneapolis Center
Tue 07:58:36 PM 41.5544 -92.3731 73° East 439 505 33,200 -537 Descending Minneapolis Center
Tue 07:59:37 PM 41.5878 -92.2208 74° East 435 501 32,500 -1,122 Descending Minneapolis Center
Tue 08:00:39 PM 41.6219 -92.0675 73° East 433 498 30,900 -1,645 Descending Minneapolis Center
Tue 08:01:41 PM 41.6606 -91.8858 74° East 430 495 29,100 -1,452 Descending Minneapolis Center
Tue 08:02:43 PM 41.6881 -91.7564 74° East 429 494 27,900 -1,304 Descending Minneapolis Center
Tue 08:03:59 PM 41.7339 -91.5358 74° East 439 505 26,100 -1,435 Descending Chicago Center
Tue 08:05:01 PM 41.7658 -91.3853 74° East 429 494 24,600 -1,452 Descending Chicago Center
Tue 08:06:03 PM 41.7972 -91.2344 74° East 428 493 23,100 -1,500 Descending Chicago Center
Tue 08:07:05 PM 41.8339 -91.0581 74° East 417 480 21,500 -1,306 Descending Chicago Center
Tue 08:08:07 PM 41.8631 -90.9133 75° East 410 472 20,400 -1,113 Descending Chicago Center
Tue 08:09:09 PM 41.8917 -90.7742 75° East 396 456 19,200 -1,161 Descending Chicago Center
Tue 08:10:11 PM 41.9208 -90.6367 74° East 389 448 18,000 -1,344 Descending Chicago Center
Tue 08:11:14 PM 41.9536 -90.4786 74° East 375 432 16,400 -1,488 Descending Chicago Center
Tue 08:12:16 PM 41.9797 -90.3522 74° East 363 418 14,900 -1,452 Descending Chicago Center
Tue 08:13:18 PM 42.0097 -90.2236 73° East 362 417 13,400 -1,355 Descending Chicago Center
Tue 08:14:20 PM 42.0358 -90.0992 74° East 355 409 12,100 -1,113 Descending Chicago Center
Tue 08:15:22 PM 42.0636 -89.9725 74° East 356 410 11,100 -968 Descending Chicago Center
Tue 08:16:24 PM 42.0906 -89.8417 74° East 349 402 10,100 -532 Descending Chicago Center
Tue 08:17:26 PM 42.1231 -89.6933 73° East 346 398 10,000 -48 Descending Chicago Center
Tue 08:18:28 PM 42.1486 -89.5664 75° East 353 406 10,000 -48 Level Chicago Center
Tue 08:19:30 PM 42.1731 -89.4458 75° East 339 390 9,900 -435 Descending Chicago Center
Tue 08:20:32 PM 42.1958 -89.3411 74° East 303 349 9,100 -864 Descending Chicago Center
Tue 08:21:35 PM 42.2164 -89.2428 74° East 282 325 8,100 -532 Descending Chicago Center
Tue 08:22:36 PM 42.2417 -89.1231 74° East 279 321 8,000 -242 Descending Chicago Center
Tue 08:23:39 PM 42.2636 -89.0219 74° East 281 323 7,600 -720 Descending Chicago Center
Tue 08:24:41 PM 42.2850 -88.9253 73° East 273 314 6,500 -968 Descending Chicago Center
Tue 08:25:43 PM 42.3075 -88.8161 74° East 274 315 5,600 -774 Descending Chicago Center
Tue 08:26:45 PM 42.3281 -88.7181 74° East 274 315 4,900 -339 Descending Chicago Center
Tue 08:27:47 PM 42.3467 -88.6300 74° East 273 314 4,900  Level Chicago Center
Tue 08:28:49 PM 42.3461 -88.5097 90° East 274 315 4,900  Level Chicago Center
Tue 08:29:51 PM 42.3406 -88.4106 94° East 269 310 4,900 -145 Level Chicago Center
Tue 08:30:53 PM 42.3350 -88.3103 94° East 268 308 4,600 -629 Descending Chicago Center
Tue 08:31:55 PM 42.3308 -88.2108 93° East 267 307 3,600 -823 Descending Chicago Center
Tue 08:32:57 PM 42.3267 -88.1097 93° East 255 293 2,900 -339 Descending Chicago Center
Tue 08:33:59 PM 42.3144 -88.0356 103° East 223 257 2,900  Level Chicago Center
Tue 08:35:01 PM 42.2781 -87.9867 135° Southeast 194 223 2,900  Level Chicago Center
Tue 08:36:04 PM 42.2344 -87.9639 159° South 182 209 2,900 -432 Level Chicago Center
Tue 08:37:06 PM 42.1858 -87.9419 162° South 167 192 2,000 -532 Descending Chicago Center
Tue 08:38:08 PM 42.1489 -87.9219 158° South 164 189 1,800 -194 Descending Chicago Center
Tue 08:40:00 PM 42.1143 -87.9015 154° Southeast  Level Estimated

Login

Don't have an account? Register now (free) for customized features, flight alerts, and more!